createdAt,value
2022-08-17T00:01:56.558Z,51.49
2022-08-17T00:03:59.011Z,51.52
2022-08-17T00:06:12.165Z,51.88
2022-08-17T00:08:16.930Z,51.74
2022-08-17T00:10:18.914Z,51.96
2022-08-17T00:12:40.764Z,51.64
2022-08-17T00:14:45.068Z,51.35
2022-08-17T00:16:52.613Z,51.68
2022-08-17T00:19:07.767Z,51.66
2022-08-17T00:21:11.794Z,51.46
2022-08-17T00:23:17.139Z,51.28
2022-08-17T00:25:20.201Z,51.03
2022-08-17T00:27:22.386Z,50.42
2022-08-17T00:29:24.793Z,50.27
2022-08-17T00:31:26.737Z,50.42
2022-08-17T00:33:33.822Z,50.25
2022-08-17T00:35:35.783Z,50.35
2022-08-17T00:37:37.768Z,50.27
2022-08-17T00:39:39.939Z,50.12
2022-08-17T00:41:42.507Z,50.82
2022-08-17T00:43:51.615Z,50.79
2022-08-17T00:45:54.149Z,51.01
2022-08-17T00:47:56.115Z,50.49
2022-08-17T00:49:57.981Z,50.15
2022-08-17T00:52:11.946Z,50.21
2022-08-17T00:54:32.573Z,50.99
2022-08-17T00:56:47.208Z,51.10
2022-08-17T00:58:50.073Z,50.83
2022-08-17T01:00:52.310Z,51.19
2022-08-17T01:02:58.197Z,51.28
2022-08-17T01:05:00.493Z,51.98
2022-08-17T01:07:04.677Z,52.16
2022-08-17T01:09:08.753Z,52.49
2022-08-17T01:11:10.570Z,52.96
2022-08-17T01:13:13.086Z,53.43
2022-08-17T01:15:16.112Z,53.35
2022-08-17T01:17:17.838Z,53.51
2022-08-17T01:19:25.437Z,52.86
2022-08-17T01:21:34.107Z,52.87
2022-08-17T01:23:36.511Z,53.99
2022-08-17T01:25:38.313Z,53.75
2022-08-17T01:27:41.528Z,54.50
2022-08-17T01:29:47.192Z,55.62
2022-08-17T01:31:52.606Z,55.70
2022-08-17T01:33:54.585Z,56.69
2022-08-17T01:35:56.662Z,56.59
2022-08-17T01:37:58.986Z,55.82
2022-08-17T01:40:07.680Z,55.54
2022-08-17T01:42:25.106Z,55.17
2022-08-17T01:44:27.955Z,53.61
2022-08-17T01:46:33.617Z,53.16
2022-08-17T01:48:38.298Z,53.60
2022-08-17T01:50:42.161Z,53.30
2022-08-17T01:52:45.596Z,53.50
2022-08-17T01:54:48.213Z,53.60
2022-08-17T01:56:51.624Z,54.17
2022-08-17T01:58:53.490Z,54.20
2022-08-17T02:01:00.310Z,54.61
2022-08-17T02:03:03.786Z,55.82
2022-08-17T02:05:06.857Z,55.57
2022-08-17T02:07:08.548Z,55.32
2022-08-17T02:09:16.473Z,55.39
2022-08-17T02:11:21.047Z,55.06
2022-08-17T02:13:23.235Z,55.25
2022-08-17T02:15:25.497Z,55.29
2022-08-17T02:17:27.359Z,55.15
2022-08-17T02:19:31.584Z,55.16
2022-08-17T02:21:34.180Z,55.22
2022-08-17T02:23:38.529Z,54.99
2022-08-17T02:25:43.329Z,55.00
2022-08-17T02:27:45.459Z,55.33
2022-08-17T02:29:47.491Z,55.51
2022-08-17T02:31:49.796Z,56.41
2022-08-17T02:34:00.542Z,56.79
2022-08-17T02:36:09.367Z,56.68
2022-08-17T02:38:11.296Z,56.43
2022-08-17T02:40:13.195Z,55.48
2022-08-17T02:42:15.421Z,54.95
2022-08-17T02:44:35.415Z,54.27
2022-08-17T02:46:39.020Z,54.22
2022-08-17T02:48:40.918Z,53.77
2022-08-17T02:50:43.126Z,54.02
2022-08-17T02:52:48.870Z,54.27
2022-08-17T02:55:09.667Z,54.55
2022-08-17T02:57:11.808Z,54.47
2022-08-17T02:59:14.031Z,54.47
2022-08-17T03:01:16.004Z,54.10
2022-08-17T03:03:20.907Z,54.13
2022-08-17T03:05:25.728Z,56.00
2022-08-17T03:07:27.495Z,56.59
2022-08-17T03:09:29.258Z,57.01
2022-08-17T03:11:31.117Z,57.29
2022-08-17T03:13:33.284Z,56.99
2022-08-17T03:15:35.770Z,56.91
2022-08-17T03:17:42.695Z,57.17
2022-08-17T03:19:44.921Z,58.34
2022-08-17T03:21:46.717Z,59.41
2022-08-17T03:23:57.739Z,59.54
2022-08-17T03:26:00.460Z,58.69
2022-08-17T03:28:03.698Z,58.46
2022-08-17T03:30:07.249Z,58.40
2022-08-17T03:32:15.193Z,58.55
2022-08-17T03:34:17.190Z,58.34
2022-08-17T03:36:18.904Z,58.25
2022-08-17T03:38:21.366Z,58.42
2022-08-17T03:40:55.841Z,58.38
2022-08-17T03:42:46.138Z,58.90
2022-08-17T03:44:52.787Z,59.72
2022-08-17T03:47:17.878Z,59.98
2022-08-17T03:49:38.381Z,59.92
2022-08-17T03:51:58.557Z,59.78
2022-08-17T03:54:19.195Z,59.57
2022-08-17T03:56:39.594Z,59.50
2022-08-17T03:58:41.316Z,59.50
2022-08-17T04:00:46.280Z,59.44
2022-08-17T04:02:48.419Z,59.05
2022-08-17T04:04:51.184Z,59.05
2022-08-17T04:06:53.620Z,59.22
2022-08-17T04:08:55.860Z,59.12
2022-08-17T04:10:58.254Z,59.34
2022-08-17T04:13:00.681Z,59.01
2022-08-17T04:15:02.976Z,58.97
2022-08-17T04:17:05.610Z,58.87
2022-08-17T04:19:07.417Z,59.00
2022-08-17T04:21:09.650Z,59.20
2022-08-17T04:23:16.870Z,58.92
2022-08-17T04:25:19.786Z,58.95
2022-08-17T04:27:21.639Z,58.98
2022-08-17T04:29:23.687Z,58.79
2022-08-17T04:31:26.355Z,58.54
2022-08-17T04:33:29.822Z,58.81
2022-08-17T04:35:35.217Z,58.79
2022-08-17T04:37:37.047Z,58.46
2022-08-17T04:39:38.825Z,58.32
2022-08-17T04:41:59.372Z,58.15
2022-08-17T04:44:01.366Z,58.01
2022-08-17T04:46:08.822Z,57.70
2022-08-17T04:48:10.568Z,57.93
2022-08-17T04:50:12.553Z,58.24
2022-08-17T04:52:37.480Z,58.37
2022-08-17T04:54:36.319Z,58.35
2022-08-17T04:56:38.735Z,57.92
2022-08-17T04:58:40.850Z,57.80
2022-08-17T05:00:42.654Z,57.64
2022-08-17T05:02:50.473Z,56.93
2022-08-17T05:04:52.630Z,57.13
2022-08-17T05:06:57.236Z,56.89
2022-08-17T05:09:00.013Z,56.71
2022-08-17T05:11:02.075Z,56.44
2022-08-17T05:13:25.167Z,56.26
2022-08-17T05:15:27.911Z,56.28
2022-08-17T05:17:29.939Z,55.81
2022-08-17T05:19:31.867Z,55.87
2022-08-17T05:21:33.704Z,55.63
2022-08-17T05:23:42.916Z,55.50
2022-08-17T05:25:50.856Z,55.08
2022-08-17T05:27:53.327Z,55.24
2022-08-17T05:29:55.098Z,54.79
2022-08-17T05:31:57.089Z,54.97
2022-08-17T05:33:59.311Z,54.90
2022-08-17T05:36:02.541Z,54.89
2022-08-17T05:38:05.488Z,55.05
2022-08-17T05:40:08.002Z,55.16
2022-08-17T05:42:10.321Z,55.15
2022-08-17T05:44:12.699Z,55.05
2022-08-17T05:46:40.809Z,55.00
2022-08-17T05:48:47.547Z,54.65
2022-08-17T05:51:26.589Z,55.37
2022-08-17T05:53:40.352Z,54.74
2022-08-17T05:55:57.585Z,55.13
2022-08-17T05:58:09.205Z,55.24
2022-08-17T06:00:21.764Z,55.65
2022-08-17T06:02:48.029Z,56.15
2022-08-17T06:05:33.725Z,55.53
2022-08-17T06:07:45.325Z,56.04
2022-08-17T06:09:58.444Z,56.47
2022-08-17T06:12:08.074Z,56.51
2022-08-17T06:14:28.212Z,56.66
2022-08-17T06:16:34.110Z,56.43
2022-08-17T06:18:52.014Z,55.99
2022-08-17T06:21:07.987Z,55.32
2022-08-17T06:23:21.667Z,55.40
2022-08-17T06:25:30.758Z,54.82
2022-08-17T06:27:59.887Z,54.93
2022-08-17T06:30:16.079Z,55.51
2022-08-17T06:32:18.438Z,56.13
2022-08-17T06:34:21.019Z,55.57
2022-08-17T06:36:47.816Z,55.34
2022-08-17T06:39:28.635Z,54.84
2022-08-17T06:41:38.149Z,54.78
2022-08-17T06:44:49.695Z,54.08
2022-08-17T06:46:59.336Z,53.83
2022-08-17T06:49:09.729Z,53.43
2022-08-17T06:51:23.798Z,52.85
2022-08-17T06:53:31.815Z,52.65
2022-08-17T06:55:50.736Z,52.20
2022-08-17T06:57:58.293Z,52.11
2022-08-17T07:00:09.108Z,52.09
2022-08-17T07:02:17.273Z,51.72
2022-08-17T07:04:21.764Z,51.30
2022-08-17T07:07:22.170Z,50.75
2022-08-17T07:09:29.870Z,51.16
2022-08-17T07:11:57.849Z,51.30
2022-08-17T07:13:59.605Z,50.89
2022-08-17T07:16:11.222Z,50.87
2022-08-17T07:18:13.185Z,49.97
2022-08-17T07:20:20.193Z,49.59
2022-08-17T07:23:00.765Z,49.01
2022-08-17T07:25:09.502Z,48.67
2022-08-17T07:27:21.669Z,48.88
2022-08-17T07:29:23.762Z,48.71
2022-08-17T07:31:26.844Z,48.61
2022-08-17T07:33:31.243Z,47.99
2022-08-17T07:35:44.553Z,48.80
2022-08-17T07:37:54.616Z,49.17
2022-08-17T07:40:15.314Z,49.23
2022-08-17T07:42:18.619Z,48.38
2022-08-17T07:44:20.576Z,48.35
2022-08-17T07:46:45.687Z,47.93
2022-08-17T07:48:50.967Z,47.77
2022-08-17T07:50:53.362Z,48.86
2022-08-17T07:52:55.746Z,48.92
2022-08-17T07:54:58.317Z,48.74
2022-08-17T07:57:09.150Z,48.45
2022-08-17T07:59:23.508Z,47.81
2022-08-17T08:01:26.139Z,47.47
2022-08-17T08:03:43.797Z,47.30
2022-08-17T08:05:56.485Z,47.09
2022-08-17T08:08:01.621Z,46.77
2022-08-17T08:10:42.728Z,45.40
2022-08-17T08:12:49.073Z,45.82
2022-08-17T08:14:59.209Z,45.34
2022-08-17T08:17:04.597Z,44.77
2022-08-17T08:19:08.427Z,45.01
2022-08-17T08:21:33.588Z,45.34
2022-08-17T08:23:51.280Z,45.13
2022-08-17T08:26:05.469Z,44.06
2022-08-17T08:28:40.598Z,43.33
2022-08-17T08:31:02.123Z,43.16
2022-08-17T08:33:25.543Z,43.13
2022-08-17T08:35:40.717Z,42.46
2022-08-17T08:37:46.604Z,41.61
2022-08-17T08:40:02.725Z,41.66
2022-08-17T08:42:13.482Z,41.84
2022-08-17T08:44:59.535Z,42.74
2022-08-17T08:47:07.695Z,42.20
2022-08-17T08:49:59.505Z,42.32
2022-08-17T08:52:02.121Z,39.50
2022-08-17T08:54:34.561Z,39.26
2022-08-17T08:57:24.284Z,38.49
2022-08-17T08:59:35.676Z,38.39
2022-08-17T09:01:49.858Z,37.92
2022-08-17T09:04:17.934Z,37.34
2022-08-17T09:06:33.219Z,37.69
2022-08-17T09:09:02.877Z,38.17
2022-08-17T09:11:22.990Z,38.34
2022-08-17T09:13:41.682Z,38.04
2022-08-17T09:15:49.609Z,38.18
2022-08-17T09:20:50.361Z,37.41
2022-08-17T09:23:07.286Z,36.83
2022-08-17T09:25:22.682Z,36.90
2022-08-17T09:27:31.376Z,37.67
2022-08-17T09:29:37.012Z,37.96
2022-08-17T09:31:55.962Z,37.92
2022-08-17T09:33:59.422Z,38.28
2022-08-17T09:36:10.265Z,37.93
2022-08-17T09:38:29.204Z,38.21
2022-08-17T09:40:57.167Z,38.16
2022-08-17T09:43:06.649Z,38.28
2022-08-17T09:45:28.628Z,37.75
2022-08-17T09:47:45.550Z,37.25
2022-08-17T09:49:50.969Z,37.21
2022-08-17T09:51:58.345Z,36.77
2022-08-17T09:54:15.134Z,35.99
2022-08-17T09:57:18.145Z,37.26
2022-08-17T09:59:36.527Z,37.15
2022-08-17T10:01:50.568Z,37.71
2022-08-17T10:04:12.662Z,37.04
2022-08-17T10:06:23.606Z,34.37
2022-08-17T10:08:34.822Z,34.68
2022-08-17T10:10:56.329Z,34.98
2022-08-17T10:13:09.799Z,35.07
2022-08-17T10:15:15.025Z,35.15
2022-08-17T10:17:25.152Z,35.41
2022-08-17T10:19:43.914Z,35.73
2022-08-17T10:22:33.001Z,35.63
2022-08-17T10:25:22.935Z,35.16
2022-08-17T10:27:38.326Z,35.19
2022-08-17T10:29:48.568Z,35.10
2022-08-17T10:31:59.712Z,34.98
2022-08-17T10:34:25.613Z,34.86
2022-08-17T10:36:46.243Z,34.83
2022-08-17T10:39:04.716Z,35.56
2022-08-17T10:41:36.878Z,34.28
2022-08-17T10:44:36.659Z,33.94
2022-08-17T10:46:31.410Z,33.44
2022-08-17T10:48:39.074Z,33.27
2022-08-17T10:50:58.176Z,33.24
2022-08-17T10:53:00.052Z,32.37
2022-08-17T10:55:01.751Z,32.17
2022-08-17T10:57:23.418Z,33.32
2022-08-17T10:59:58.983Z,33.42
2022-08-17T11:02:26.231Z,33.18
2022-08-17T11:04:46.586Z,32.89
2022-08-17T11:07:25.940Z,31.87
2022-08-17T11:09:43.489Z,32.21
2022-08-17T11:12:11.211Z,31.91
2022-08-17T11:14:24.139Z,30.98
2022-08-17T11:16:38.142Z,31.04
2022-08-17T11:19:15.271Z,31.48
2022-08-17T11:21:50.509Z,31.50
2022-08-17T11:24:11.788Z,31.28
2022-08-17T11:26:32.165Z,31.14
2022-08-17T11:28:45.029Z,30.38
2022-08-17T11:30:53.839Z,29.90
2022-08-17T11:32:58.505Z,29.96
2022-08-17T11:35:22.345Z,31.02
2022-08-17T11:37:27.888Z,32.62
2022-08-17T11:40:05.582Z,31.92
2022-08-17T11:42:26.627Z,32.22
2022-08-17T11:44:46.769Z,32.00
2022-08-17T11:47:19.039Z,31.92
2022-08-17T11:49:54.644Z,31.92
2022-08-17T11:52:00.334Z,36.17
2022-08-17T11:54:36.253Z,37.94
2022-08-17T11:56:47.203Z,39.40
2022-08-17T11:58:49.435Z,39.39
2022-08-17T12:00:58.520Z,40.11
2022-08-17T12:03:22.433Z,40.12
2022-08-17T12:05:27.672Z,40.55
2022-08-17T12:07:32.764Z,40.55
2022-08-17T12:09:39.561Z,39.68
2022-08-17T12:12:11.123Z,40.09
2022-08-17T12:14:20.183Z,40.28
2022-08-17T12:16:24.559Z,40.31
2022-08-17T12:18:34.019Z,41.39
2022-08-17T12:20:40.072Z,41.28
2022-08-17T12:23:14.095Z,41.12
2022-08-17T12:25:49.484Z,40.73
2022-08-17T12:28:05.108Z,39.88
2022-08-17T12:30:14.007Z,39.91
2022-08-17T12:32:18.401Z,39.34
2022-08-17T12:34:24.356Z,39.00
2022-08-17T12:36:28.451Z,38.24
2022-08-17T12:38:34.681Z,37.73
2022-08-17T12:40:37.708Z,37.33
2022-08-17T12:42:40.474Z,37.03
2022-08-17T12:44:50.440Z,37.02
2022-08-17T12:47:04.861Z,37.13
2022-08-17T12:49:29.064Z,36.40
2022-08-17T12:51:31.907Z,36.32
2022-08-17T12:53:37.492Z,36.47
2022-08-17T12:55:40.522Z,36.77
2022-08-17T12:57:44.838Z,37.83
2022-08-17T12:59:50.951Z,38.27
2022-08-17T13:01:53.983Z,38.03
2022-08-17T13:03:59.833Z,38.47
2022-08-17T13:06:06.354Z,38.03
2022-08-17T13:08:27.467Z,37.49
2022-08-17T13:10:33.310Z,37.99
2022-08-17T13:12:36.362Z,38.10
2022-08-17T13:14:38.245Z,37.44
2022-08-17T13:16:40.324Z,36.85
2022-08-17T13:18:44.199Z,37.04
2022-08-17T13:20:53.472Z,36.48
2022-08-17T13:22:58.123Z,36.35
2022-08-17T13:25:07.020Z,36.53
2022-08-17T13:27:12.608Z,36.62
2022-08-17T13:29:38.991Z,36.22
2022-08-17T13:31:52.388Z,35.21
2022-08-17T13:34:31.391Z,35.53
2022-08-17T13:36:35.092Z,35.69
2022-08-17T13:38:41.314Z,36.38
2022-08-17T13:40:50.256Z,36.37
2022-08-17T13:42:54.190Z,36.41
2022-08-17T13:44:56.707Z,36.44
2022-08-17T13:47:00.925Z,36.29
2022-08-17T13:49:06.732Z,35.75
2022-08-17T13:51:20.141Z,36.01
2022-08-17T13:53:28.162Z,36.63
2022-08-17T13:55:33.134Z,35.74
2022-08-17T13:57:35.890Z,35.83
2022-08-17T13:59:55.249Z,35.86
2022-08-17T14:01:58.224Z,35.83
2022-08-17T14:04:03.076Z,35.51
2022-08-17T14:06:05.172Z,35.10
2022-08-17T14:08:07.348Z,34.96
2022-08-17T14:10:17.522Z,35.33
2022-08-17T14:12:25.062Z,35.02
2022-08-17T14:14:27.247Z,34.67
2022-08-17T14:16:29.660Z,33.98
2022-08-17T14:18:43.343Z,34.01
2022-08-17T14:20:56.702Z,33.62
2022-08-17T14:22:58.618Z,33.52
2022-08-17T14:25:01.843Z,33.25
2022-08-17T14:27:04.381Z,33.59
2022-08-17T14:29:15.150Z,33.45
2022-08-17T14:31:17.438Z,33.84
2022-08-17T14:33:22.617Z,33.37
2022-08-17T14:35:24.952Z,33.44
2022-08-17T14:37:28.342Z,33.28
2022-08-17T14:39:30.149Z,33.10
2022-08-17T14:41:31.955Z,32.92
2022-08-17T14:43:34.871Z,33.30
2022-08-17T14:45:37.202Z,33.45
2022-08-17T14:47:41.396Z,33.40
2022-08-17T14:49:43.966Z,32.85
2022-08-17T14:51:49.638Z,32.82
2022-08-17T14:53:51.507Z,33.01
2022-08-17T14:55:53.406Z,33.24
2022-08-17T14:57:55.457Z,33.26
2022-08-17T14:59:57.799Z,33.59
2022-08-17T15:02:00.621Z,32.98
2022-08-17T15:04:02.380Z,32.80
2022-08-17T15:06:04.317Z,32.69
2022-08-17T15:08:11.665Z,32.84
2022-08-17T15:10:14.844Z,32.60
2022-08-17T15:12:20.738Z,32.46
2022-08-17T15:14:23.266Z,32.71
2022-08-17T15:16:27.140Z,32.19
2022-08-17T15:18:30.358Z,32.34
2022-08-17T15:20:32.471Z,31.75
2022-08-17T15:22:34.204Z,31.42
2022-08-17T15:24:35.950Z,31.77
2022-08-17T15:26:38.209Z,32.46
2022-08-17T15:28:39.975Z,31.92
2022-08-17T15:30:45.106Z,31.64
2022-08-17T15:32:54.423Z,31.61
2022-08-17T15:34:59.412Z,31.57
2022-08-17T15:37:03.304Z,31.88
2022-08-17T15:39:05.127Z,32.45
2022-08-17T15:41:09.074Z,31.78
2022-08-17T15:43:24.775Z,31.05
2022-08-17T15:45:30.715Z,28.68
2022-08-17T15:47:32.686Z,28.06
2022-08-17T15:49:34.381Z,27.79
2022-08-17T15:51:36.508Z,28.70
2022-08-17T15:53:39.787Z,28.42
2022-08-17T15:55:42.079Z,28.42
2022-08-17T15:57:45.061Z,28.25
2022-08-17T15:59:52.044Z,28.71
2022-08-17T16:03:09.880Z,28.60
2022-08-17T16:04:29.806Z,28.58
2022-08-17T16:06:32.977Z,28.89
2022-08-17T16:08:35.995Z,28.83
2022-08-17T16:10:38.102Z,29.04
2022-08-17T16:12:40.660Z,28.43
2022-08-17T16:14:43.567Z,28.77
2022-08-17T16:16:45.398Z,28.90
2022-08-17T16:18:47.444Z,28.78
2022-08-17T16:20:57.068Z,28.80
2022-08-17T16:22:59.124Z,29.19
2022-08-17T16:25:04.620Z,29.47
2022-08-17T16:27:12.501Z,29.46
2022-08-17T16:29:14.559Z,28.73
2022-08-17T16:31:16.718Z,29.35
2022-08-17T16:33:18.651Z,29.34
2022-08-17T16:35:22.617Z,28.75
2022-08-17T16:37:24.405Z,29.40
2022-08-17T16:39:31.494Z,29.30
2022-08-17T16:41:45.919Z,28.78
2022-08-17T16:43:51.099Z,29.12
2022-08-17T16:45:52.943Z,29.34
2022-08-17T16:47:59.361Z,29.25
2022-08-17T16:50:03.676Z,29.34
2022-08-17T16:52:12.084Z,29.95
2022-08-17T16:54:17.588Z,29.48
2022-08-17T16:56:20.036Z,30.01
2022-08-17T16:58:21.814Z,30.20
2022-08-17T17:00:23.904Z,31.02
2022-08-17T17:02:27.259Z,31.27
2022-08-17T17:04:29.018Z,31.54
2022-08-17T17:06:39.953Z,31.75
2022-08-17T17:08:48.500Z,32.08
2022-08-17T17:10:52.742Z,32.54
2022-08-17T17:13:01.546Z,32.76
2022-08-17T17:15:06.647Z,32.83
2022-08-17T17:17:25.440Z,32.86
2022-08-17T17:19:34.930Z,33.20
2022-08-17T17:21:46.343Z,33.79
2022-08-17T17:23:56.844Z,34.35
2022-08-17T17:26:22.734Z,34.14
2022-08-17T17:28:31.395Z,34.96
2022-08-17T17:30:38.261Z,34.90
2022-08-17T17:32:45.888Z,35.59
2022-08-17T17:35:06.040Z,35.77
2022-08-17T17:37:12.845Z,36.37
2022-08-17T17:39:23.884Z,36.51
2022-08-17T17:41:31.860Z,36.88
2022-08-17T17:43:41.106Z,37.08
2022-08-17T17:46:26.615Z,37.32
2022-08-17T17:48:31.529Z,37.45
2022-08-17T17:50:37.724Z,37.90
2022-08-17T17:52:41.351Z,37.80
2022-08-17T17:54:46.276Z,38.06
2022-08-17T17:57:03.508Z,37.90
2022-08-17T17:59:12.714Z,38.00
2022-08-17T18:01:42.231Z,38.28
2022-08-17T18:03:47.013Z,38.29
2022-08-17T18:06:00.624Z,37.91
2022-08-17T18:08:37.459Z,38.01
2022-08-17T18:10:51.607Z,38.45
2022-08-17T18:13:02.800Z,38.37
2022-08-17T18:15:22.051Z,38.66
2022-08-17T18:17:24.222Z,38.61
2022-08-17T18:19:29.137Z,38.70
2022-08-17T18:21:44.540Z,38.63
2022-08-17T18:23:48.413Z,38.49
2022-08-17T18:25:53.651Z,38.81
2022-08-17T18:27:58.388Z,38.61
2022-08-17T18:30:27.822Z,38.87
2022-08-17T18:32:41.007Z,38.57
2022-08-17T18:34:47.725Z,38.78
2022-08-17T18:36:50.675Z,39.19
2022-08-17T18:39:14.880Z,38.67
2022-08-17T18:41:20.807Z,38.94
2022-08-17T18:43:53.136Z,39.31
2022-08-17T18:45:57.383Z,39.34
2022-08-17T18:47:59.492Z,39.22
2022-08-17T18:50:22.205Z,39.22
2022-08-17T18:52:30.403Z,39.71
2022-08-17T18:54:32.451Z,39.76
2022-08-17T18:56:36.613Z,39.85
2022-08-17T18:58:38.626Z,39.84
2022-08-17T19:00:42.479Z,40.34
2022-08-17T19:03:00.125Z,40.26
2022-08-17T19:05:08.030Z,39.92
2022-08-17T19:07:24.489Z,40.56
2022-08-17T19:09:49.178Z,40.62
2022-08-17T19:11:51.364Z,40.40
2022-08-17T19:13:57.521Z,40.41
2022-08-17T19:16:14.069Z,40.77
2022-08-17T19:18:30.552Z,40.50
2022-08-17T19:20:59.958Z,40.88
2022-08-17T19:23:08.418Z,40.90
2022-08-17T19:25:19.898Z,40.78
2022-08-17T19:27:41.981Z,41.39
2022-08-17T19:30:08.411Z,41.09
2022-08-17T19:32:11.668Z,41.38
2022-08-17T19:34:15.047Z,41.23
2022-08-17T19:36:22.588Z,41.40
2022-08-17T19:38:54.461Z,41.33
2022-08-17T19:41:00.158Z,41.57
2022-08-17T19:43:28.978Z,41.72
2022-08-17T19:45:49.809Z,41.72
2022-08-17T19:48:10.109Z,41.49
2022-08-17T19:50:38.533Z,41.82
2022-08-17T19:52:43.255Z,41.96
2022-08-17T19:54:55.732Z,41.83
2022-08-17T19:57:18.062Z,41.90
2022-08-17T19:59:26.800Z,41.78
2022-08-17T20:02:01.083Z,42.06
2022-08-17T20:04:32.375Z,42.03
2022-08-17T20:06:38.010Z,41.67
2022-08-17T20:08:54.381Z,41.55
2022-08-17T20:11:08.852Z,41.64
2022-08-17T20:13:18.818Z,41.71
2022-08-17T20:15:40.143Z,41.77
2022-08-17T20:17:45.261Z,42.08
2022-08-17T20:20:02.012Z,41.71
2022-08-17T20:22:06.637Z,42.11
2022-08-17T20:24:31.670Z,41.94
2022-08-17T20:27:01.203Z,41.99
2022-08-17T20:29:14.994Z,42.23
2022-08-17T20:31:35.299Z,42.36
2022-08-17T20:33:38.026Z,42.38
2022-08-17T20:35:40.848Z,42.38
2022-08-17T20:37:54.456Z,42.31
2022-08-17T20:39:56.324Z,42.52
2022-08-17T20:42:12.835Z,42.67
2022-08-17T20:44:33.143Z,43.09
2022-08-17T20:46:38.454Z,42.96
2022-08-17T20:48:45.190Z,42.79
2022-08-17T20:50:51.907Z,42.84
2022-08-17T20:53:13.528Z,43.17
2022-08-17T20:55:52.009Z,43.00
2022-08-17T20:57:54.900Z,43.20
2022-08-17T21:00:18.422Z,43.05
2022-08-17T21:02:22.132Z,43.06
2022-08-17T21:04:47.651Z,43.31
2022-08-17T21:07:23.384Z,43.16
2022-08-17T21:09:30.036Z,43.22
2022-08-17T21:11:57.009Z,43.47
2022-08-17T21:13:58.237Z,43.45
2022-08-17T21:16:07.661Z,43.63
2022-08-17T21:18:39.107Z,43.70
2022-08-17T21:20:47.193Z,43.78
2022-08-17T21:23:01.606Z,43.77
2022-08-17T21:25:25.414Z,44.30
2022-08-17T21:27:46.619Z,44.13
2022-08-17T21:30:06.426Z,44.35
2022-08-17T21:32:09.644Z,44.63
2022-08-17T21:34:15.212Z,45.18
2022-08-17T21:36:24.076Z,44.96
2022-08-17T21:38:53.383Z,44.79
2022-08-17T21:40:58.915Z,45.15
2022-08-17T21:43:24.335Z,45.23
2022-08-17T21:45:31.935Z,45.37
2022-08-17T21:47:34.956Z,45.65
2022-08-17T21:49:38.057Z,45.74
2022-08-17T21:51:45.926Z,45.85
2022-08-17T21:53:54.061Z,45.91
2022-08-17T21:55:56.332Z,45.76
2022-08-17T21:58:14.586Z,45.86
2022-08-17T22:00:25.290Z,45.86
2022-08-17T22:02:37.405Z,45.93
2022-08-17T22:04:41.586Z,46.05
2022-08-17T22:06:56.737Z,45.97
2022-08-17T22:09:07.392Z,45.68
2022-08-17T22:11:09.183Z,46.11
2022-08-17T22:13:20.710Z,46.01
2022-08-17T22:15:23.725Z,46.09
2022-08-17T22:17:37.092Z,46.01
2022-08-17T22:19:39.288Z,45.82
2022-08-17T22:21:41.070Z,46.04
2022-08-17T22:24:03.316Z,46.19
2022-08-17T22:26:09.608Z,46.17
2022-08-17T22:28:38.399Z,46.14
2022-08-17T22:30:41.967Z,46.18
2022-08-17T22:32:46.191Z,46.25
2022-08-17T22:35:26.145Z,46.35
2022-08-17T22:37:29.075Z,46.58
2022-08-17T22:39:40.474Z,46.44
2022-08-17T22:41:52.151Z,46.48
2022-08-17T22:43:55.144Z,46.38
2022-08-17T22:45:59.363Z,46.60
2022-08-17T22:48:02.212Z,46.74
2022-08-17T22:50:13.587Z,46.97
2022-08-17T22:52:15.213Z,46.66
2022-08-17T22:54:37.740Z,46.92
2022-08-17T22:57:12.135Z,46.86
2022-08-17T22:59:33.733Z,46.67
2022-08-17T23:01:35.625Z,46.95
2022-08-17T23:03:53.430Z,47.10
2022-08-17T23:06:08.192Z,46.92
2022-08-17T23:08:11.710Z,46.94
2022-08-17T23:10:13.615Z,47.00
2022-08-17T23:12:22.386Z,47.07
2022-08-17T23:14:31.539Z,47.17
2022-08-17T23:16:33.472Z,47.24
2022-08-17T23:18:36.023Z,47.22
2022-08-17T23:20:39.694Z,47.12
2022-08-17T23:22:51.095Z,47.08
2022-08-17T23:24:54.517Z,46.89
2022-08-17T23:26:57.535Z,47.25
2022-08-17T23:29:02.462Z,47.49
2022-08-17T23:31:07.970Z,47.58
2022-08-17T23:33:21.709Z,47.39
2022-08-17T23:35:39.904Z,47.17
2022-08-17T23:37:42.883Z,47.30
2022-08-17T23:39:45.536Z,47.42
2022-08-17T23:41:47.643Z,47.37
2022-08-17T23:43:51.850Z,47.58
2022-08-17T23:45:59.644Z,47.69
2022-08-17T23:48:02.435Z,47.87
2022-08-17T23:50:05.577Z,47.89
2022-08-17T23:52:10.053Z,48.25
2022-08-17T23:54:16.232Z,48.33
2022-08-17T23:56:24.039Z,47.86
2022-08-17T23:58:26.234Z,47.91
